Airfield :
LOGIN :

Register | Disclaimer

   EN    FR    IT 

 










Legend :    VFR   Marginal VFR   IFR   Intensive IFR   Very Intensive IFR
Visi :
Ceiling :
>= 8 km
>= 3000ft
5 to 8 km
1000 to 3000 ft
1500m to 5 km
500 to 1000 ft
800 to 1500m
200 to 500 ft
< 800m
< 200 ft
Symbols :   Thunderstorms  Fog  Heavy snow  Heavy precipitations  Wind > 20 kt
SIGMETs :     Misc.  Thunderstorms  Icing  Turbulence  Mountain Waves  Volcanic Ashes






- Airport Elevation : 53 ft
- IATA code : LBC


EDHL - Lübeck

CURRENT METAR :
  • 081020Z VRB02KT 3200 -SN FEW002 BKN006 00/00 Q1004

EXPIRED METARs :
  • 080950Z VRB02KT 2400 -SNRA BKN006 00/00 Q1005
  • 080920Z VRB01KT 7000 -RA SCT008 OVC010 01/00 Q1004
  • 080850Z VRB01KT 6000 -RA SCT007 OVC010 01/01 Q1004
  • 080820Z VRB02KT 5000 -RA OVC007 01/00 Q1004
  • 080750Z 28003KT 5000 -RA SCT004 OVC006 01/01 Q1004

TAF TAF EDHL
Valid from the 08 at 09:00 until the 08 at 18:00 UTC


080800Z 0809/0818 VRB03KT 6000 SCT003 OVC005
TEMPO 0809/0810 2000 SNRA BKN003
BECMG 0810/0812 SCT010
PROB40
TEMPO 0810/0812 2500 BR BKN004
BECMG 0815/0817 1200 BCFG
TEMPO 0817/0818 0500 FZFG OVC001



MET'MAP, your aeronautical weather chart ! - Copyright ORBIFLY December 2007 - Disclaimer

ORBIFLY MET'MAP TEAM :

Programming & Development : Alexandra Zaïnal
Original concept : Baudouin d'Aumeries
Technical & hardware support : Manuel Goepfert
Assistance : Marc-Olivier Méhu




SOURCES & CREDITS :

   NOAA